Imlay, South Dakota
Current Conditions -  °F | °C
As of 1:52 PM on Friday 24 Oct 2014 (Local Time) from KRAP Reporting Station
Clear Clear  
Wind Chill: 70°   Ceiling: Unl
Heat Index: 70°   Visibility: 10mi
Dew Point: 38°   Wind: 17mph
Humidity: 31%   Direction: 10°N
Pressure: 30"   Gusts: 23mph
Location:  43.793°N, 102.433°W
Report Text: KRAP 241952Z 01015G20KT 10SM CLR 21/03 A3000 RMK AO2 SLP148 T02110033
Loading
Personal Weather Stations






























Interactive Weather Map
Tropical Storm Tracking
New forecast layout! Learn more

10-Day Weather Forecast

Advertisements
Track Severe Weather on mobile